sensor_id;sensor_type;location;lat;lon;timestamp;pressure;altitude;pressure_sealevel;temperature;humidity
20825;BME280;10573;50.936;6.978;2024-02-26T00:00:33;99369.84;;;10.95;52.89
20825;BME280;10573;50.936;6.978;2024-02-26T00:03:00;99373.03;;;10.98;52.76
20825;BME280;10573;50.936;6.978;2024-02-26T00:05:25;99373.66;;;10.85;52.20
20825;BME280;10573;50.936;6.978;2024-02-26T00:07:51;99371.69;;;10.94;52.90
20825;BME280;10573;50.936;6.978;2024-02-26T00:10:16;99375.09;;;10.73;53.23
20825;BME280;10573;50.936;6.978;2024-02-26T00:12:42;99374.78;;;10.68;53.12
20825;BME280;10573;50.936;6.978;2024-02-26T00:15:08;99377.97;;;10.71;53.93
20825;BME280;10573;50.936;6.978;2024-02-26T00:17:34;99375.69;;;10.60;53.65
20825;BME280;10573;50.936;6.978;2024-02-26T00:19:59;99366.63;;;10.68;54.42
20825;BME280;10573;50.936;6.978;2024-02-26T00:22:26;99361.03;;;10.61;54.56
20825;BME280;10573;50.936;6.978;2024-02-26T00:24:51;99355.78;;;10.60;54.85
20825;BME280;10573;50.936;6.978;2024-02-26T00:27:17;99353.72;;;10.62;54.72
20825;BME280;10573;50.936;6.978;2024-02-26T00:29:42;99360.66;;;10.41;55.60
20825;BME280;10573;50.936;6.978;2024-02-26T00:32:08;99352.19;;;10.59;55.97
20825;BME280;10573;50.936;6.978;2024-02-26T00:34:33;99348.56;;;10.44;55.26
20825;BME280;10573;50.936;6.978;2024-02-26T00:36:58;99339.91;;;10.32;54.72
20825;BME280;10573;50.936;6.978;2024-02-26T00:39:26;99343.44;;;10.40;55.11
20825;BME280;10573;50.936;6.978;2024-02-26T00:41:51;99335.34;;;10.24;54.93
20825;BME280;10573;50.936;6.978;2024-02-26T00:44:17;99340.44;;;10.35;55.31
20825;BME280;10573;50.936;6.978;2024-02-26T00:46:42;99345.63;;;10.05;55.30
20825;BME280;10573;50.936;6.978;2024-02-26T00:49:07;99341.47;;;10.26;55.76
20825;BME280;10573;50.936;6.978;2024-02-26T00:51:33;99346.91;;;10.26;56.25
20825;BME280;10573;50.936;6.978;2024-02-26T00:53:58;99339.78;;;10.25;56.31
20825;BME280;10573;50.936;6.978;2024-02-26T00:56:24;99347.31;;;10.15;55.56
20825;BME280;10573;50.936;6.978;2024-02-26T00:58:49;99352.38;;;10.26;55.49
20825;BME280;10573;50.936;6.978;2024-02-26T01:01:14;99354.00;;;10.44;55.86
20825;BME280;10573;50.936;6.978;2024-02-26T01:03:40;99348.97;;;10.24;56.41
20825;BME280;10573;50.936;6.978;2024-02-26T01:06:05;99353.50;;;10.40;56.87
20825;BME280;10573;50.936;6.978;2024-02-26T01:08:30;99358.13;;;10.23;56.84
20825;BME280;10573;50.936;6.978;2024-02-26T01:10:57;99348.59;;;10.27;56.89
20825;BME280;10573;50.936;6.978;2024-02-26T01:13:22;99353.31;;;10.02;57.84
20825;BME280;10573;50.936;6.978;2024-02-26T01:15:48;99346.91;;;10.26;57.80
20825;BME280;10573;50.936;6.978;2024-02-26T01:18:13;99345.16;;;10.33;57.93
20825;BME280;10573;50.936;6.978;2024-02-26T01:20:39;99352.78;;;10.46;58.29
20825;BME280;10573;50.936;6.978;2024-02-26T01:23:04;99346.91;;;10.26;57.66
20825;BME280;10573;50.936;6.978;2024-02-26T01:25:29;99346.41;;;10.22;58.33
20825;BME280;10573;50.936;6.978;2024-02-26T01:27:55;99348.91;;;10.32;58.37
20825;BME280;10573;50.936;6.978;2024-02-26T01:30:20;99341.09;;;10.29;57.47
20825;BME280;10573;50.936;6.978;2024-02-26T01:32:46;99347.22;;;10.39;58.27
20825;BME280;10573;50.936;6.978;2024-02-26T01:35:11;99349.66;;;10.18;58.33
20825;BME280;10573;50.936;6.978;2024-02-26T01:37:37;99350.28;;;10.28;58.45
20825;BME280;10573;50.936;6.978;2024-02-26T01:40:05;99342.97;;;10.37;58.95
20825;BME280;10573;50.936;6.978;2024-02-26T01:42:32;99342.91;;;10.05;59.87
20825;BME280;10573;50.936;6.978;2024-02-26T01:44:58;99345.59;;;10.22;59.80
20825;BME280;10573;50.936;6.978;2024-02-26T01:47:25;99343.81;;;10.37;59.73
20825;BME280;10573;50.936;6.978;2024-02-26T01:49:51;99337.72;;;10.27;59.63
20825;BME280;10573;50.936;6.978;2024-02-26T01:52:17;99331.38;;;10.03;60.00
20825;BME280;10573;50.936;6.978;2024-02-26T01:54:44;99323.88;;;10.05;59.67
20825;BME280;10573;50.936;6.978;2024-02-26T01:57:10;99335.81;;;9.96;60.45
20825;BME280;10573;50.936;6.978;2024-02-26T01:59:36;99323.03;;;10.05;61.15
20825;BME280;10573;50.936;6.978;2024-02-26T02:02:05;99320.81;;;10.00;60.17
20825;BME280;10573;50.936;6.978;2024-02-26T02:04:31;99328.38;;;9.90;60.61
20825;BME280;10573;50.936;6.978;2024-02-26T02:06:58;99331.66;;;10.17;60.89
20825;BME280;10573;50.936;6.978;2024-02-26T02:09:26;99335.13;;;10.02;61.49
20825;BME280;10573;50.936;6.978;2024-02-26T02:11:53;99321.47;;;10.11;60.91
20825;BME280;10573;50.936;6.978;2024-02-26T02:14:19;99320.81;;;10.00;61.44
20825;BME280;10573;50.936;6.978;2024-02-26T02:16:44;99325.81;;;9.97;62.01
20825;BME280;10573;50.936;6.978;2024-02-26T02:19:10;99323.41;;;9.94;61.35
20825;BME280;10573;50.936;6.978;2024-02-26T02:21:35;99325.81;;;9.97;61.78
20825;BME280;10573;50.936;6.978;2024-02-26T02:24:00;99320.00;;;10.00;61.63
20825;BME280;10573;50.936;6.978;2024-02-26T02:26:26;99318.78;;;10.02;61.28
20825;BME280;10573;50.936;6.978;2024-02-26T02:28:51;99320.91;;;9.84;61.45
20825;BME280;10573;50.936;6.978;2024-02-26T02:31:18;99326.72;;;9.81;61.79
20825;BME280;10573;50.936;6.978;2024-02-26T02:33:43;99317.50;;;9.90;61.74
20825;BME280;10573;50.936;6.978;2024-02-26T02:36:09;99315.97;;;9.87;61.50
20825;BME280;10573;50.936;6.978;2024-02-26T02:38:38;99326.63;;;9.97;61.98
20825;BME280;10573;50.936;6.978;2024-02-26T02:41:14;99319.47;;;10.04;61.35
20825;BME280;10573;50.936;6.978;2024-02-26T02:43:39;99318.16;;;9.92;61.71
20825;BME280;10573;50.936;6.978;2024-02-26T02:46:04;99318.47;;;9.97;61.20
20825;BME280;10573;50.936;6.978;2024-02-26T02:48:30;99319.41;;;9.73;62.23
20825;BME280;10573;50.936;6.978;2024-02-26T02:50:55;99312.97;;;9.74;62.02
20825;BME280;10573;50.936;6.978;2024-02-26T02:53:21;99319.53;;;9.88;62.11
20825;BME280;10573;50.936;6.978;2024-02-26T02:55:46;99322.44;;;9.86;62.52
20825;BME280;10573;50.936;6.978;2024-02-26T02:58:11;99326.47;;;9.51;63.16
20825;BME280;10573;50.936;6.978;2024-02-26T03:00:37;99310.75;;;9.78;63.26
20825;BME280;10573;50.936;6.978;2024-02-26T03:03:02;99316.63;;;9.89;63.31
20825;BME280;10573;50.936;6.978;2024-02-26T03:05:28;99308.59;;;9.96;61.92
20825;BME280;10573;50.936;6.978;2024-02-26T03:07:53;99307.91;;;10.02;62.27
20825;BME280;10573;50.936;6.978;2024-02-26T03:10:18;99311.03;;;9.91;63.05
20825;BME280;10573;50.936;6.978;2024-02-26T03:12:44;99309.34;;;9.90;62.98
20825;BME280;10573;50.936;6.978;2024-02-26T03:15:09;99308.97;;;9.93;63.52
20825;BME280;10573;50.936;6.978;2024-02-26T03:17:36;99314.19;;;9.63;63.43
20825;BME280;10573;50.936;6.978;2024-02-26T03:20:01;99309.66;;;9.95;63.88
20825;BME280;10573;50.936;6.978;2024-02-26T03:22:29;99316.94;;;9.95;63.34
20825;BME280;10573;50.936;6.978;2024-02-26T03:24:54;99315.81;;;9.81;63.18
20825;BME280;10573;50.936;6.978;2024-02-26T03:27:20;99317.16;;;9.85;64.18
20825;BME280;10573;50.936;6.978;2024-02-26T03:29:45;99324.59;;;9.99;64.06
20825;BME280;10573;50.936;6.978;2024-02-26T03:32:10;99315.97;;;9.87;63.89
20825;BME280;10573;50.936;6.978;2024-02-26T03:34:36;99314.97;;;9.80;63.58
20825;BME280;10573;50.936;6.978;2024-02-26T03:37:04;99318.19;;;9.84;64.69
20825;BME280;10573;50.936;6.978;2024-02-26T03:39:29;99310.03;;;9.84;64.61
20825;BME280;10573;50.936;6.978;2024-02-26T03:41:55;99307.63;;;9.89;64.18
20825;BME280;10573;50.936;6.978;2024-02-26T03:44:20;99309.88;;;9.77;63.95
20825;BME280;10573;50.936;6.978;2024-02-26T03:46:46;99311.22;;;9.81;63.92
20825;BME280;10573;50.936;6.978;2024-02-26T03:49:12;99314.44;;;9.85;64.27
20825;BME280;10573;50.936;6.978;2024-02-26T03:51:38;99315.63;;;9.90;64.72
20825;BME280;10573;50.936;6.978;2024-02-26T03:54:03;99306.97;;;9.79;64.67
20825;BME280;10573;50.936;6.978;2024-02-26T03:56:29;99309.00;;;9.85;64.90
20825;BME280;10573;50.936;6.978;2024-02-26T03:58:54;99326.06;;;9.70;65.54
20825;BME280;10573;50.936;6.978;2024-02-26T04:01:20;99326.72;;;9.81;65.37
20825;BME280;10573;50.936;6.978;2024-02-26T04:03:45;99329.47;;;9.72;65.37
20825;BME280;10573;50.936;6.978;2024-02-26T04:06:11;99333.84;;;9.82;66.46
20825;BME280;10573;50.936;6.978;2024-02-26T04:08:40;99333.53;;;9.77;66.29
20825;BME280;10573;50.936;6.978;2024-02-26T04:11:05;99337.28;;;9.67;65.91
20825;BME280;10573;50.936;6.978;2024-02-26T04:13:33;99340.81;;;9.76;66.59
20825;BME280;10573;50.936;6.978;2024-02-26T04:15:59;99339.69;;;9.62;67.16
20825;BME280;10573;50.936;6.978;2024-02-26T04:18:26;99344.13;;;9.55;67.47
20825;BME280;10573;50.936;6.978;2024-02-26T04:20:52;99352.91;;;9.65;67.14
20825;BME280;10573;50.936;6.978;2024-02-26T04:23:17;99359.84;;;9.76;67.05
20825;BME280;10573;50.936;6.978;2024-02-26T04:25:42;99360.50;;;9.86;67.60
20825;BME280;10573;50.936;6.978;2024-02-26T04:28:08;99359.00;;;9.76;67.22
20825;BME280;10573;50.936;6.978;2024-02-26T04:30:33;99356.47;;;9.74;67.53
20825;BME280;10573;50.936;6.978;2024-02-26T04:32:59;99353.72;;;9.82;67.30
20825;BME280;10573;50.936;6.978;2024-02-26T04:35:24;99355.59;;;9.73;67.33
20825;BME280;10573;50.936;6.978;2024-02-26T04:37:50;99359.41;;;9.48;68.19
20825;BME280;10573;50.936;6.978;2024-02-26T04:40:15;99363.47;;;9.60;68.48
20825;BME280;10573;50.936;6.978;2024-02-26T04:42:40;99366.19;;;9.68;68.37
20825;BME280;10573;50.936;6.978;2024-02-26T04:45:06;99362.63;;;9.60;68.72
20825;BME280;10573;50.936;6.978;2024-02-26T04:47:33;99363.47;;;9.68;68.30
20825;BME280;10573;50.936;6.978;2024-02-26T04:49:58;99371.13;;;9.65;68.32
20825;BME280;10573;50.936;6.978;2024-02-26T04:52:24;99365.69;;;9.56;68.78
20825;BME280;10573;50.936;6.978;2024-02-26T04:54:49;99360.13;;;9.42;69.05
20825;BME280;10573;50.936;6.978;2024-02-26T04:57:15;99365.38;;;9.43;68.86
20825;BME280;10573;50.936;6.978;2024-02-26T04:59:40;99364.53;;;9.51;68.94
20825;BME280;10573;50.936;6.978;2024-02-26T05:02:07;99361.78;;;9.43;69.48
20825;BME280;10573;50.936;6.978;2024-02-26T05:04:33;99369.44;;;9.47;69.14
20825;BME280;10573;50.936;6.978;2024-02-26T05:06:58;99366.19;;;9.52;69.21
20825;BME280;10573;50.936;6.978;2024-02-26T05:09:23;99368.91;;;9.52;68.43
20825;BME280;10573;50.936;6.978;2024-02-26T05:11:49;99371.63;;;9.60;68.76
20825;BME280;10573;50.936;6.978;2024-02-26T05:14:14;99372.31;;;9.62;68.85
20825;BME280;10573;50.936;6.978;2024-02-26T05:16:40;99372.19;;;9.39;68.90
20825;BME280;10573;50.936;6.978;2024-02-26T05:19:06;99361.66;;;9.44;68.77
20825;BME280;10573;50.936;6.978;2024-02-26T05:21:31;99361.78;;;9.43;69.36
20825;BME280;10573;50.936;6.978;2024-02-26T05:23:56;99358.22;;;9.50;69.12
20825;BME280;10573;50.936;6.978;2024-02-26T05:26:23;99366.94;;;9.37;69.19
20825;BME280;10573;50.936;6.978;2024-02-26T05:28:49;99366.75;;;9.39;69.66
20825;BME280;10573;50.936;6.978;2024-02-26T05:31:15;99368.28;;;9.33;69.80
20825;BME280;10573;50.936;6.978;2024-02-26T05:33:40;99364.22;;;9.13;70.95
20825;BME280;10573;50.936;6.978;2024-02-26T05:36:06;99367.25;;;9.26;70.47
20825;BME280;10573;50.936;6.978;2024-02-26T05:38:32;99365.56;;;9.42;70.58
20825;BME280;10573;50.936;6.978;2024-02-26T05:40:58;99372.84;;;9.33;70.28
20825;BME280;10573;50.936;6.978;2024-02-26T05:43:27;99381.19;;;9.31;70.34
20825;BME280;10573;50.936;6.978;2024-02-26T05:45:53;99375.78;;;9.15;71.14
20825;BME280;10573;50.936;6.978;2024-02-26T05:48:19;99380.00;;;8.84;71.81
20825;BME280;10573;50.936;6.978;2024-02-26T05:50:45;99377.63;;;8.73;72.08
20825;BME280;10573;50.936;6.978;2024-02-26T05:53:10;99381.16;;;8.82;71.68
20825;BME280;10573;50.936;6.978;2024-02-26T05:55:36;99390.69;;;8.94;71.79
20825;BME280;10573;50.936;6.978;2024-02-26T05:58:01;99388.84;;;8.86;71.80
20825;BME280;10573;50.936;6.978;2024-02-26T06:00:26;99385.56;;;8.58;72.61
20825;BME280;10573;50.936;6.978;2024-02-26T06:02:52;99388.84;;;8.86;71.44
20825;BME280;10573;50.936;6.978;2024-02-26T06:05:17;99398.50;;;8.89;71.61
20825;BME280;10573;50.936;6.978;2024-02-26T06:07:43;99402.53;;;8.68;72.05
20825;BME280;10573;50.936;6.978;2024-02-26T06:10:08;99404.94;;;8.88;72.20
20825;BME280;10573;50.936;6.978;2024-02-26T06:12:37;99403.16;;;8.54;72.50
20825;BME280;10573;50.936;6.978;2024-02-26T06:15:03;99411.19;;;8.72;72.66
20825;BME280;10573;50.936;6.978;2024-02-26T06:17:29;99406.97;;;8.94;72.36
20825;BME280;10573;50.936;6.978;2024-02-26T06:19:54;99417.78;;;8.53;73.00
20825;BME280;10573;50.936;6.978;2024-02-26T06:22:20;99417.47;;;8.81;73.01
20825;BME280;10573;50.936;6.978;2024-02-26T06:24:45;99420.53;;;8.78;72.88
20825;BME280;10573;50.936;6.978;2024-02-26T06:27:11;99416.13;;;8.77;72.69
20825;BME280;10573;50.936;6.978;2024-02-26T06:29:37;99418.84;;;8.85;72.47
20825;BME280;10573;50.936;6.978;2024-02-26T06:32:03;99423.28;;;8.94;72.23
20825;BME280;10573;50.936;6.978;2024-02-26T06:34:28;99422.22;;;8.70;72.53
20825;BME280;10573;50.936;6.978;2024-02-26T06:36:54;99419.69;;;8.69;73.24
20825;BME280;10573;50.936;6.978;2024-02-26T06:39:19;99428.81;;;8.60;73.21
20825;BME280;10573;50.936;6.978;2024-02-26T06:41:44;99424.13;;;8.35;74.05
20825;BME280;10573;50.936;6.978;2024-02-26T06:44:12;99432.38;;;8.60;73.45
20825;BME280;10573;50.936;6.978;2024-02-26T06:46:38;99438.97;;;8.57;73.63
20825;BME280;10573;50.936;6.978;2024-02-26T06:49:03;99441.25;;;8.70;73.04
20825;BME280;10573;50.936;6.978;2024-02-26T06:51:28;99457.41;;;8.46;72.95
20825;BME280;10573;50.936;6.978;2024-02-26T06:53:54;99460.63;;;8.84;72.42
20825;BME280;10573;50.936;6.978;2024-02-26T06:56:19;99449.38;;;8.70;72.68
20825;BME280;10573;50.936;6.978;2024-02-26T06:58:45;99457.53;;;8.79;72.52
20825;BME280;10573;50.936;6.978;2024-02-26T07:01:12;99457.56;;;8.95;72.31
20825;BME280;10573;50.936;6.978;2024-02-26T07:03:37;99455.56;;;8.97;73.19
20825;BME280;10573;50.936;6.978;2024-02-26T07:06:03;99464.69;;;8.88;72.46
20825;BME280;10573;50.936;6.978;2024-02-26T07:08:28;99458.72;;;8.68;73.27
20825;BME280;10573;50.936;6.978;2024-02-26T07:10:54;99465.28;;;8.57;73.34
20825;BME280;10573;50.936;6.978;2024-02-26T07:13:20;99470.22;;;8.62;72.74
20825;BME280;10573;50.936;6.978;2024-02-26T07:15:46;99468.06;;;8.82;72.57
20825;BME280;10573;50.936;6.978;2024-02-26T07:18:11;99471.66;;;8.90;72.65
20825;BME280;10573;50.936;6.978;2024-02-26T07:20:36;99475.66;;;8.70;72.91
20825;BME280;10573;50.936;6.978;2024-02-26T07:23:02;99479.91;;;8.72;72.94
20825;BME280;10573;50.936;6.978;2024-02-26T07:25:28;99481.53;;;9.00;72.17
20825;BME280;10573;50.936;6.978;2024-02-26T07:27:53;99481.38;;;9.10;71.96
20825;BME280;10573;50.936;6.978;2024-02-26T07:30:18;99476.91;;;8.84;72.25
20825;BME280;10573;50.936;6.978;2024-02-26T07:32:44;99488.31;;;8.96;71.94
20825;BME280;10573;50.936;6.978;2024-02-26T07:35:09;99493.06;;;9.10;71.75
20825;BME280;10573;50.936;6.978;2024-02-26T07:37:35;99480.19;;;9.04;72.06
20825;BME280;10573;50.936;6.978;2024-02-26T07:40:00;99488.47;;;8.94;72.60
20825;BME280;10573;50.936;6.978;2024-02-26T07:42:26;99487.00;;;8.57;72.68
20825;BME280;10573;50.936;6.978;2024-02-26T07:44:51;99489.81;;;8.90;72.45
20825;BME280;10573;50.936;6.978;2024-02-26T07:47:18;99492.69;;;8.80;72.67
20825;BME280;10573;50.936;6.978;2024-02-26T07:49:43;99499.69;;;9.07;72.60
20825;BME280;10573;50.936;6.978;2024-02-26T07:52:09;99485.78;;;9.11;72.03
20825;BME280;10573;50.936;6.978;2024-02-26T07:54:34;99502.41;;;8.99;72.10
20825;BME280;10573;50.936;6.978;2024-02-26T07:56:59;99501.66;;;8.81;73.04
20825;BME280;10573;50.936;6.978;2024-02-26T07:59:25;99502.09;;;9.02;72.62
20825;BME280;10573;50.936;6.978;2024-02-26T08:01:51;99505.19;;;9.24;71.80
20825;BME280;10573;50.936;6.978;2024-02-26T08:04:17;99509.53;;;9.00;71.87
20825;BME280;10573;50.936;6.978;2024-02-26T08:06:42;99511.63;;;9.15;71.94
20825;BME280;10573;50.936;6.978;2024-02-26T08:09:08;99513.16;;;9.26;71.34
20825;BME280;10573;50.936;6.978;2024-02-26T08:11:34;99519.78;;;9.39;71.23
20825;BME280;10573;50.936;6.978;2024-02-26T08:13:59;99506.47;;;9.03;70.80
20825;BME280;10573;50.936;6.978;2024-02-26T08:16:24;99516.72;;;9.26;71.04
20825;BME280;10573;50.936;6.978;2024-02-26T08:18:50;99520.97;;;9.37;71.46
20825;BME280;10573;50.936;6.978;2024-02-26T08:21:15;99524.22;;;9.32;70.62
20825;BME280;10573;50.936;6.978;2024-02-26T08:23:43;99526.25;;;9.38;70.54
20825;BME280;10573;50.936;6.978;2024-02-26T08:26:09;99533.22;;;9.41;70.34
20825;BME280;10573;50.936;6.978;2024-02-26T08:28:37;99532.34;;;9.24;70.47
20825;BME280;10573;50.936;6.978;2024-02-26T08:31:02;99530.94;;;9.03;71.54
20825;BME280;10573;50.936;6.978;2024-02-26T08:33:28;99545.63;;;9.44;71.16
20825;BME280;10573;50.936;6.978;2024-02-26T08:35:53;99558.84;;;9.38;70.82
20825;BME280;10573;50.936;6.978;2024-02-26T08:38:19;99561.91;;;9.44;71.51
20825;BME280;10573;50.936;6.978;2024-02-26T08:40:44;99553.47;;;9.63;70.63
20825;BME280;10573;50.936;6.978;2024-02-26T08:43:10;99545.44;;;9.45;71.01
20825;BME280;10573;50.936;6.978;2024-02-26T08:45:35;99556.31;;;9.37;70.62
20825;BME280;10573;50.936;6.978;2024-02-26T08:48:00;99563.97;;;9.42;70.67
20825;BME280;10573;50.936;6.978;2024-02-26T08:50:26;99564.31;;;9.47;71.01
20825;BME280;10573;50.936;6.978;2024-02-26T08:52:52;99566.00;;;9.48;71.00
20825;BME280;10573;50.936;6.978;2024-02-26T08:55:18;99565.34;;;9.46;70.65
20825;BME280;10573;50.936;6.978;2024-02-26T08:57:44;99570.78;;;9.70;70.52
20825;BME280;10573;50.936;6.978;2024-02-26T09:00:10;99576.22;;;9.62;70.48
20825;BME280;10573;50.936;6.978;2024-02-26T09:02:36;99578.94;;;9.54;71.07
20825;BME280;10573;50.936;6.978;2024-02-26T09:05:05;99582.84;;;9.51;71.08
20825;BME280;10573;50.936;6.978;2024-02-26T09:07:31;99577.06;;;9.54;70.31
20825;BME280;10573;50.936;6.978;2024-02-26T09:09:57;99585.34;;;9.28;70.45
20825;BME280;10573;50.936;6.978;2024-02-26T09:12:22;99586.84;;;9.22;71.02
20825;BME280;10573;50.936;6.978;2024-02-26T09:14:48;99589.13;;;9.52;70.13
20825;BME280;10573;50.936;6.978;2024-02-26T09:17:14;99593.19;;;9.56;70.34
20825;BME280;10573;50.936;6.978;2024-02-26T09:19:39;99599.97;;;9.35;69.91
20825;BME280;10573;50.936;6.978;2024-02-26T09:22:05;99600.69;;;9.54;70.69
20825;BME280;10573;50.936;6.978;2024-02-26T09:24:32;99602.75;;;9.68;70.19
20825;BME280;10573;50.936;6.978;2024-02-26T09:26:57;99612.88;;;9.33;70.51
20825;BME280;10573;50.936;6.978;2024-02-26T09:29:22;99610.19;;;9.50;70.15
20825;BME280;10573;50.936;6.978;2024-02-26T09:31:48;99620.38;;;9.48;70.54
20825;BME280;10573;50.936;6.978;2024-02-26T09:34:13;99626.53;;;9.58;70.43
20825;BME280;10573;50.936;6.978;2024-02-26T09:36:39;99616.66;;;9.49;70.23
20825;BME280;10573;50.936;6.978;2024-02-26T09:39:05;99626.53;;;9.58;71.20
20825;BME280;10573;50.936;6.978;2024-02-26T09:41:32;99621.25;;;9.48;70.07
20825;BME280;10573;50.936;6.978;2024-02-26T09:43:58;99623.66;;;9.09;70.89
20825;BME280;10573;50.936;6.978;2024-02-26T09:46:25;99631.22;;;9.31;71.45
20825;BME280;10573;50.936;6.978;2024-02-26T09:48:50;99637.00;;;9.36;71.31
20825;BME280;10573;50.936;6.978;2024-02-26T09:51:16;99635.50;;;9.50;71.00
20825;BME280;10573;50.936;6.978;2024-02-26T09:53:47;99639.59;;;9.54;70.68
20825;BME280;10573;50.936;6.978;2024-02-26T09:56:16;99641.13;;;9.57;69.94
20825;BME280;10573;50.936;6.978;2024-02-26T09:58:42;99646.00;;;9.37;70.23
20825;BME280;10573;50.936;6.978;2024-02-26T10:01:13;99636.19;;;9.44;70.21
20825;BME280;10573;50.936;6.978;2024-02-26T10:03:41;99646.91;;;9.62;71.20
20825;BME280;10573;50.936;6.978;2024-02-26T10:06:10;99645.97;;;9.29;70.53
20825;BME280;10573;50.936;6.978;2024-02-26T10:08:37;99645.34;;;9.35;70.34
20825;BME280;10573;50.936;6.978;2024-02-26T10:11:05;99659.41;;;9.30;71.18
20825;BME280;10573;50.936;6.978;2024-02-26T10:13:30;99660.19;;;9.65;70.45
20825;BME280;10573;50.936;6.978;2024-02-26T10:15:55;99661.50;;;9.53;70.57
20825;BME280;10573;50.936;6.978;2024-02-26T10:18:24;99662.22;;;9.63;70.19
20825;BME280;10573;50.936;6.978;2024-02-26T10:21:00;99664.00;;;9.30;71.09
20825;BME280;10573;50.936;6.978;2024-02-26T10:23:29;99672.03;;;9.48;70.81
20825;BME280;10573;50.936;6.978;2024-02-26T10:25:55;99672.41;;;9.61;70.85
20825;BME280;10573;50.936;6.978;2024-02-26T10:28:21;99669.38;;;9.72;71.01
20825;BME280;10573;50.936;6.978;2024-02-26T10:30:46;99670.41;;;9.71;70.63
20825;BME280;10573;50.936;6.978;2024-02-26T10:33:12;99669.22;;;9.82;69.98
20825;BME280;10573;50.936;6.978;2024-02-26T10:35:39;99673.78;;;9.73;69.69
20825;BME280;10573;50.936;6.978;2024-02-26T10:38:07;99680.84;;;9.33;70.22
20825;BME280;10573;50.936;6.978;2024-02-26T10:40:34;99682.00;;;9.82;70.11
20825;BME280;10573;50.936;6.978;2024-02-26T10:42:59;99684.38;;;10.10;70.24
20825;BME280;10573;50.936;6.978;2024-02-26T10:45:24;99680.31;;;10.14;69.53
20825;BME280;10573;50.936;6.978;2024-02-26T10:47:50;99686.44;;;9.99;68.71
20825;BME280;10573;50.936;6.978;2024-02-26T10:50:16;99690.19;;;10.06;69.45
20825;BME280;10573;50.936;6.978;2024-02-26T10:52:42;99687.63;;;10.13;69.20
20825;BME280;10573;50.936;6.978;2024-02-26T10:55:20;99699.41;;;10.22;68.53
20825;BME280;10573;50.936;6.978;2024-02-26T10:57:48;99697.00;;;10.27;68.43
20825;BME280;10573;50.936;6.978;2024-02-26T11:00:17;99704.13;;;10.12;68.20
20825;BME280;10573;50.936;6.978;2024-02-26T11:02:45;99700.41;;;10.04;68.76
20825;BME280;10573;50.936;6.978;2024-02-26T11:05:12;99701.41;;;10.12;68.85
20825;BME280;10573;50.936;6.978;2024-02-26T11:07:37;99707.88;;;10.27;68.31
20825;BME280;10573;50.936;6.978;2024-02-26T11:10:04;99710.94;;;10.16;68.18
20825;BME280;10573;50.936;6.978;2024-02-26T11:12:34;99712.31;;;10.28;67.70
20825;BME280;10573;50.936;6.978;2024-02-26T11:15:03;99719.28;;;10.22;67.89
20825;BME280;10573;50.936;6.978;2024-02-26T11:17:29;99715.72;;;10.22;68.58
20825;BME280;10573;50.936;6.978;2024-02-26T11:19:59;99721.00;;;10.32;67.75
20825;BME280;10573;50.936;6.978;2024-02-26T11:22:25;99723.53;;;10.33;67.68
20825;BME280;10573;50.936;6.978;2024-02-26T11:24:55;99724.28;;;10.44;67.93
20825;BME280;10573;50.936;6.978;2024-02-26T11:27:29;99729.53;;;10.53;68.79
20825;BME280;10573;50.936;6.978;2024-02-26T11:29:58;99725.94;;;10.78;68.57
20825;BME280;10573;50.936;6.978;2024-02-26T11:32:29;99732.56;;;10.91;67.97
20825;BME280;10573;50.936;6.978;2024-02-26T11:34:56;99739.38;;;10.79;68.23
20825;BME280;10573;50.936;6.978;2024-02-26T11:37:23;99739.94;;;10.66;68.50
20825;BME280;10573;50.936;6.978;2024-02-26T11:39:51;99741.47;;;10.77;67.58
20825;BME280;10573;50.936;6.978;2024-02-26T11:42:17;99746.56;;;10.80;67.59
20825;BME280;10573;50.936;6.978;2024-02-26T11:44:46;99744.00;;;10.46;67.29
20825;BME280;10573;50.936;6.978;2024-02-26T11:47:18;99744.69;;;10.56;67.86
20825;BME280;10573;50.936;6.978;2024-02-26T11:49:43;99748.44;;;10.55;67.05
20825;BME280;10573;50.936;6.978;2024-02-26T11:52:09;99747.91;;;10.51;67.89
20825;BME280;10573;50.936;6.978;2024-02-26T11:54:38;99753.53;;;10.74;68.14
20825;BME280;10573;50.936;6.978;2024-02-26T11:57:04;99750.47;;;10.78;67.22
20825;BME280;10573;50.936;6.978;2024-02-26T11:59:39;99753.19;;;10.45;68.09
20825;BME280;10573;50.936;6.978;2024-02-26T12:02:07;99751.50;;;10.60;68.50
20825;BME280;10573;50.936;6.978;2024-02-26T12:04:33;99751.66;;;10.67;68.39
20825;BME280;10573;50.936;6.978;2024-02-26T12:07:02;99748.94;;;10.75;67.52
20825;BME280;10573;50.936;6.978;2024-02-26T12:12:07;99756.09;;;10.60;68.28
20825;BME280;10573;50.936;6.978;2024-02-26T12:14:55;99759.66;;;10.52;68.81
20825;BME280;10573;50.936;6.978;2024-02-26T12:17:23;99757.28;;;10.57;69.29
20825;BME280;10573;50.936;6.978;2024-02-26T12:19:49;99759.28;;;10.22;69.26
20825;BME280;10573;50.936;6.978;2024-02-26T12:22:16;99762.38;;;10.44;68.66
20825;BME280;10573;50.936;6.978;2024-02-26T12:24:44;99774.91;;;10.28;69.04
20825;BME280;10573;50.936;6.978;2024-02-26T12:27:10;99770.56;;;10.35;68.97
20825;BME280;10573;50.936;6.978;2024-02-26T12:29:35;99776.19;;;10.58;69.39
20825;BME280;10573;50.936;6.978;2024-02-26T12:32:01;99789.97;;;10.65;68.57
20825;BME280;10573;50.936;6.978;2024-02-26T12:34:28;99794.03;;;10.45;69.76
20825;BME280;10573;50.936;6.978;2024-02-26T12:36:54;99795.59;;;10.80;69.48
20825;BME280;10573;50.936;6.978;2024-02-26T12:39:20;99798.69;;;10.18;70.06
20825;BME280;10573;50.936;6.978;2024-02-26T12:41:46;99804.69;;;10.30;70.00
20825;BME280;10573;50.936;6.978;2024-02-26T12:44:16;99806.53;;;10.13;70.34
20825;BME280;10573;50.936;6.978;2024-02-26T12:46:41;99809.63;;;10.26;69.96
20825;BME280;10573;50.936;6.978;2024-02-26T12:49:07;99814.81;;;10.03;70.05
20825;BME280;10573;50.936;6.978;2024-02-26T12:51:33;99818.81;;;10.25;70.61
20825;BME280;10573;50.936;6.978;2024-02-26T12:53:59;99828.34;;;10.21;70.35
20825;BME280;10573;50.936;6.978;2024-02-26T12:56:25;99820.63;;;10.16;70.89
20825;BME280;10573;50.936;6.978;2024-02-26T12:58:52;99828.91;;;10.41;70.98
20825;BME280;10573;50.936;6.978;2024-02-26T13:01:22;99830.13;;;10.71;69.90
20825;BME280;10573;50.936;6.978;2024-02-26T13:03:49;99832.84;;;10.71;69.88